Time;durP1;ratioP1;P1;durP2;ratioP2;P2;SDS_P1;SDS_P2;PMS_P1;PMS_P2;Temp;Humidity;BMP_temperature;BMP_pressure;BME280_temperature;BME280_humidity;BME280_pressure;Samples;Min_cycle;Max_cycle;Signal;HPM_P1;HPM_P2
2022/03/06 00:01:49;;;;;;;44.03;25.40;;;2.50;99.90;;;;;;4971686;28;20110;-71
2022/03/06 00:04:20;;;;;;;43.40;24.83;;;2.50;99.90;;;;;;4971251;28;20370;-72
2022/03/06 00:06:49;;;;;;;44.65;26.45;;;2.50;99.90;;;;;;4972636;28;20049;-72
2022/03/06 00:09:15;;;;;;;48.70;26.00;;;2.50;99.90;;;;;;4971005;28;20031;-72
2022/03/06 00:11:44;;;;;;;41.63;25.50;;;2.50;99.90;;;;;;4971441;28;20029;-73
2022/03/06 00:14:13;;;;;;;51.47;26.40;;;2.40;99.90;;;;;;4987340;28;20039;-72
2022/03/06 00:16:47;;;;;;;44.33;25.75;;;2.40;99.90;;;;;;4972506;28;20038;-73
2022/03/06 00:19:13;;;;;;;45.75;27.67;;;2.30;99.90;;;;;;4972151;28;20031;-72
2022/03/06 00:21:40;;;;;;;53.13;27.98;;;2.10;99.90;;;;;;4955606;28;20389;-72
2022/03/06 00:24:07;;;;;;;47.65;27.33;;;2.10;99.90;;;;;;4972368;28;20041;-72
2022/03/06 00:26:42;;;;;;;49.25;29.33;;;2.00;99.90;;;;;;4970869;28;20040;-73
2022/03/06 00:29:10;;;;;;;45.25;25.90;;;1.80;99.90;;;;;;4971052;28;20031;-72
2022/03/06 00:31:39;;;;;;;46.25;28.00;;;1.70;99.90;;;;;;4972018;28;20033;-72
2022/03/06 00:34:11;;;;;;;52.17;31.02;;;1.60;99.90;;;;;;4970748;28;20071;-73
2022/03/06 00:36:39;;;;;;;49.08;30.08;;;1.70;99.90;;;;;;4972347;28;20058;-74
2022/03/06 00:39:05;;;;;;;52.40;30.77;;;1.60;99.90;;;;;;4972588;28;20311;-69
2022/03/06 00:41:35;;;;;;;58.10;33.17;;;1.50;99.90;;;;;;4972292;28;20037;-74
2022/03/06 00:44:01;;;;;;;55.28;32.38;;;1.50;99.90;;;;;;4972523;28;20027;-73
2022/03/06 00:46:29;;;;;;;55.88;33.47;;;1.50;99.90;;;;;;4972337;28;20058;-73
2022/03/06 00:48:58;;;;;;;56.75;34.15;;;1.40;99.90;;;;;;4954764;28;20031;-71
2022/03/06 00:51:28;;;;;;;52.40;32.65;;;1.50;99.90;;;;;;4972253;28;20039;-74
2022/03/06 00:53:54;;;;;;;57.75;33.13;;;1.50;99.90;;;;;;4958027;28;20472;-72
2022/03/06 00:56:38;;;;;;;;;;;;;;;;;;;;;
2022/03/06 00:59:16;;;;;;;54.55;32.72;;;1.50;99.90;;;;;;4974203;28;20477;-72
2022/03/06 01:01:45;;;;;;;55.95;33.53;;;1.60;99.90;;;;;;4958373;28;20034;-73
2022/03/06 01:04:14;;;;;;;52.22;31.02;;;1.60;99.90;;;;;;4958474;28;20035;-72
2022/03/06 01:06:40;;;;;;;53.72;32.78;;;1.60;99.90;;;;;;4973692;28;20035;-72
2022/03/06 01:09:06;;;;;;;50.30;30.15;;;1.60;99.90;;;;;;4975374;28;20027;-73
2022/03/06 01:11:47;;;;;;;53.17;31.25;;;1.60;99.90;;;;;;4975201;28;20034;-72
2022/03/06 01:14:13;;;;;;;51.00;30.92;;;1.80;99.90;;;;;;4989984;28;20031;-72
2022/03/06 01:16:39;;;;;;;51.67;30.00;;;1.80;99.90;;;;;;4975611;28;20033;-73
2022/03/06 01:19:05;;;;;;;50.60;31.13;;;1.80;99.90;;;;;;4990447;28;20396;-73
2022/03/06 01:21:32;;;;;;;49.22;30.05;;;1.90;99.90;;;;;;4975534;28;20030;-72
2022/03/06 01:23:58;;;;;;;50.35;29.08;;;1.90;99.90;;;;;;4958258;28;20033;-73
2022/03/06 01:26:24;;;;;;;47.40;30.17;;;1.90;99.90;;;;;;4975164;28;20109;-73
2022/03/06 01:28:50;;;;;;;49.60;30.05;;;2.00;99.90;;;;;;4974163;28;20031;-73
2022/03/06 01:31:16;;;;;;;52.92;31.25;;;2.10;99.90;;;;;;4973506;28;20118;-72
2022/03/06 01:34:06;;;;;;;52.38;33.50;;;2.10;99.90;;;;;;4974975;28;20034;-72
2022/03/06 01:36:37;;;;;;;47.08;30.40;;;2.20;99.90;;;;;;4991422;28;20058;-73
2022/03/06 01:39:03;;;;;;;46.22;29.67;;;2.30;99.90;;;;;;4992148;28;20386;-72
2022/03/06 01:41:34;;;;;;;46.08;29.33;;;2.40;99.90;;;;;;4991396;28;20040;-72
2022/03/06 01:44:03;;;;;;;47.05;26.90;;;2.50;99.90;;;;;;4991600;28;20030;-71
2022/03/06 01:46:32;;;;;;;42.83;27.08;;;2.50;99.90;;;;;;4975380;28;20062;-72
2022/03/06 01:48:59;;;;;;;47.80;27.48;;;2.60;99.90;;;;;;4975738;28;20077;-72
2022/03/06 01:51:25;;;;;;;44.70;26.98;;;2.70;99.90;;;;;;4991674;28;20461;-72
2022/03/06 01:53:56;;;;;;;50.42;28.17;;;2.70;99.90;;;;;;4991581;28;20501;-74
2022/03/06 01:56:22;;;;;;;45.13;27.33;;;2.80;99.90;;;;;;4959215;28;20030;-74
2022/03/06 01:58:51;;;;;;;42.33;26.45;;;2.80;99.90;;;;;;4991537;28;20033;-73
2022/03/06 02:01:28;;;;;;;43.30;27.13;;;2.80;99.90;;;;;;4959616;28;20124;-70
2022/03/06 02:04:20;;;;;;;41.00;28.33;;;2.80;99.90;;;;;;4978864;28;20085;-73
2022/03/06 02:07:05;;;;;;;49.85;26.73;;;2.90;99.90;;;;;;4991491;28;20535;-70
2022/03/06 02:09:33;;;;;;;40.00;25.40;;;3.00;99.90;;;;;;4958993;28;20030;-71
2022/03/06 02:14:49;;;;;;;43.15;25.52;;;2.90;99.90;;;;;;4973226;28;20385;-72
2022/03/06 02:17:18;;;;;;;40.63;25.90;;;3.00;99.90;;;;;;4989073;28;20279;-71
2022/03/06 02:20:10;;;;;;;44.10;24.83;;;2.90;99.90;;;;;;4956621;28;20093;-71
2022/03/06 02:22:49;;;;;;;43.22;25.67;;;3.00;99.90;;;;;;4957488;28;20034;-72
2022/03/06 02:25:20;;;;;;;41.05;25.42;;;3.00;99.90;;;;;;4990600;28;20129;-72
2022/03/06 02:27:48;;;;;;;45.28;25.80;;;3.00;99.90;;;;;;4974834;28;20137;-73
2022/03/06 02:30:30;;;;;;;47.33;27.42;;;3.00;99.90;;;;;;4990782;28;20042;-73
2022/03/06 02:33:14;;;;;;;40.38;24.75;;;3.00;99.90;;;;;;4990601;28;20076;-73
2022/03/06 02:38:47;;;;;;;;;;;3.10;99.90;;;;;;4990667;28;20053;-73
2022/03/06 02:41:26;;;;;;;42.17;25.52;;;3.10;99.90;;;;;;4990756;28;19917;-72
2022/03/06 02:43:54;;;;;;;37.63;23.88;;;3.10;99.90;;;;;;4990617;28;20062;-73
2022/03/06 02:46:23;;;;;;;43.28;26.25;;;3.10;99.90;;;;;;4990522;28;20101;-72
2022/03/06 02:48:51;;;;;;;44.25;26.80;;;3.10;99.90;;;;;;4990613;28;20084;-73
2022/03/06 02:51:20;;;;;;;41.83;25.80;;;3.10;99.90;;;;;;4990694;28;20424;-73
2022/03/06 02:53:46;;;;;;;43.25;25.60;;;3.00;99.90;;;;;;4990504;28;20034;-71
2022/03/06 02:56:12;;;;;;;43.75;26.38;;;3.00;99.90;;;;;;4963010;28;20039;-71
2022/03/06 02:59:09;;;;;;;40.78;24.85;;;2.90;99.90;;;;;;4954106;29;20039;-72
2022/03/06 03:01:49;;;;;;;47.85;27.75;;;2.90;99.90;;;;;;4968046;28;20466;-73
2022/03/06 03:04:15;;;;;;;44.28;26.92;;;2.90;99.90;;;;;;4957372;28;20519;-71
2022/03/06 03:06:46;;;;;;;39.97;26.30;;;2.80;99.90;;;;;;4973548;28;20023;-72
2022/03/06 03:09:14;;;;;;;48.70;27.85;;;2.80;99.90;;;;;;4971745;28;20125;-70
2022/03/06 03:11:40;;;;;;;46.47;27.02;;;2.70;99.90;;;;;;4971705;28;20022;-72
2022/03/06 03:14:06;;;;;;;41.97;26.02;;;2.70;99.90;;;;;;4972865;28;20389;-73
2022/03/06 03:16:32;;;;;;;47.10;29.08;;;2.70;99.90;;;;;;4972717;28;20381;-72
2022/03/06 03:18:57;;;;;;;46.60;28.42;;;2.70;99.90;;;;;;4973530;28;20117;-72
2022/03/06 03:21:51;;;;;;;45.65;27.67;;;2.70;99.90;;;;;;4973110;28;20027;-74
2022/03/06 03:24:40;;;;;;;42.97;27.58;;;2.70;99.90;;;;;;4973028;28;20049;-73
2022/03/06 03:27:09;;;;;;;45.05;28.42;;;2.70;99.90;;;;;;4971984;28;20398;-72
2022/03/06 03:29:38;;;;;;;43.42;27.25;;;2.70;99.90;;;;;;4973220;28;20025;-73
2022/03/06 03:32:05;;;;;;;43.65;25.58;;;2.70;99.90;;;;;;4971366;28;20407;-73
2022/03/06 03:34:31;;;;;;;48.70;27.05;;;2.80;99.90;;;;;;4971819;28;20030;-72
2022/03/06 03:36:57;;;;;;;44.08;26.30;;;2.80;99.90;;;;;;4971431;28;20046;-72
2022/03/06 03:39:23;;;;;;;42.97;26.23;;;2.80;99.90;;;;;;4972620;28;20031;-73
2022/03/06 03:41:49;;;;;;;50.45;32.03;;;2.90;99.90;;;;;;4971699;28;20086;-74
2022/03/06 03:44:15;;;;;;;48.58;28.33;;;2.90;99.90;;;;;;4971662;28;20031;-71
2022/03/06 03:46:52;;;;;;;56.42;35.33;;;2.90;99.90;;;;;;4972660;28;20054;-70
2022/03/06 03:49:20;;;;;;;45.28;27.02;;;2.90;99.90;;;;;;4987411;28;20035;-72
2022/03/06 03:51:49;;;;;;;39.83;25.17;;;2.90;99.90;;;;;;4971397;28;20046;-73
2022/03/06 03:54:18;;;;;;;41.95;24.55;;;3.00;99.90;;;;;;4987749;28;20034;-73
2022/03/06 03:57:18;;;;;;;39.90;24.55;;;3.00;99.90;;;;;;4987402;28;20485;-72
2022/03/06 03:59:47;;;;;;;38.47;23.67;;;3.00;99.90;;;;;;5009319;28;20046;-72
2022/03/06 04:02:24;;;;;;;40.08;25.10;;;3.00;99.90;;;;;;5009204;28;20022;-71
2022/03/06 04:05:06;;;;;;;41.08;25.80;;;3.00;99.90;;;;;;4992250;28;20125;-72
2022/03/06 04:07:38;;;;;;;39.15;24.83;;;3.00;99.90;;;;;;4991985;28;20046;-72
2022/03/06 04:10:07;;;;;;;39.25;24.08;;;3.00;99.90;;;;;;5008237;28;20492;-72
2022/03/06 04:12:55;;;;;;;36.10;23.42;;;3.10;99.90;;;;;;5009118;28;20072;-72
2022/03/06 04:15:26;;;;;;;38.65;24.30;;;3.10;99.90;;;;;;4992508;28;20110;-72
2022/03/06 04:17:54;;;;;;;38.25;23.17;;;3.10;99.90;;;;;;4991699;28;20065;-72
2022/03/06 04:20:21;;;;;;;40.90;24.98;;;3.00;99.90;;;;;;4991774;28;20105;-72
2022/03/06 04:22:47;;;;;;;41.55;25.65;;;3.00;99.90;;;;;;5008967;28;20093;-71
2022/03/06 04:25:21;;;;;;;36.40;24.13;;;3.00;99.90;;;;;;5008347;28;20018;-71
2022/03/06 04:27:47;;;;;;;44.13;25.92;;;2.90;99.90;;;;;;5009641;28;20037;-72
2022/03/06 04:30:13;;;;;;;43.72;26.33;;;2.80;99.90;;;;;;4995943;28;20108;-71
2022/03/06 04:32:39;;;;;;;39.05;24.90;;;2.80;99.90;;;;;;5012465;28;20064;-72
2022/03/06 04:35:42;;;;;;;39.85;24.75;;;2.70;99.90;;;;;;5010418;28;20030;-72
2022/03/06 04:38:28;;;;;;;44.55;25.98;;;2.70;99.90;;;;;;4974213;28;20035;-73
2022/03/06 04:40:54;;;;;;;43.00;27.10;;;2.70;99.90;;;;;;4974555;28;20520;-72
2022/03/06 04:43:22;;;;;;;44.60;27.40;;;2.70;99.90;;;;;;4990723;28;20055;-72
2022/03/06 04:45:48;;;;;;;42.03;26.20;;;2.60;99.90;;;;;;4974406;28;20050;-72
2022/03/06 04:48:14;;;;;;;38.53;26.02;;;2.60;99.90;;;;;;4990555;28;20491;-73
2022/03/06 04:50:40;;;;;;;44.65;28.58;;;2.60;99.90;;;;;;4974434;28;20037;-73
2022/03/06 04:53:06;;;;;;;39.67;25.77;;;2.50;99.90;;;;;;4974777;28;20520;-73
2022/03/06 04:55:34;;;;;;;41.58;26.08;;;2.40;99.90;;;;;;4974204;28;20031;-72
2022/03/06 04:58:00;;;;;;;43.78;28.13;;;2.40;99.90;;;;;;4990386;28;20038;-73
2022/03/06 05:00:27;;;;;;;44.45;28.35;;;2.30;99.90;;;;;;4975518;28;20491;-73
2022/03/06 05:02:53;;;;;;;46.45;29.63;;;2.30;99.90;;;;;;4974064;28;20035;-71
2022/03/06 05:05:19;;;;;;;46.90;29.30;;;2.20;99.90;;;;;;4974736;28;20027;-73
2022/03/06 05:07:45;;;;;;;43.28;27.50;;;2.10;99.90;;;;;;4973984;28;20061;-68
2022/03/06 05:10:11;;;;;;;48.85;30.58;;;2.10;99.90;;;;;;4990316;28;20038;-72
2022/03/06 05:12:40;;;;;;;45.78;28.80;;;2.10;99.90;;;;;;4974843;28;20042;-73
2022/03/06 05:15:08;;;;;;;47.38;30.10;;;2.00;99.90;;;;;;4959191;28;20514;-74
2022/03/06 05:17:34;;;;;;;52.17;29.98;;;2.00;99.90;;;;;;4974094;28;20097;-72
2022/03/06 05:20:00;;;;;;;51.53;31.33;;;2.00;99.90;;;;;;4974717;28;20023;-72
2022/03/06 05:22:26;;;;;;;50.33;30.75;;;2.00;99.90;;;;;;4974732;28;20030;-72
2022/03/06 05:24:52;;;;;;;45.00;28.70;;;2.00;99.90;;;;;;4975130;28;20059;-73
2022/03/06 05:27:18;;;;;;;49.15;29.52;;;2.00;99.90;;;;;;4973312;28;20104;-73
2022/03/06 05:29:44;;;;;;;50.85;29.65;;;2.00;99.90;;;;;;4974780;28;20401;-74
2022/03/06 05:32:10;;;;;;;53.15;34.70;;;1.90;99.90;;;;;;4975132;28;20027;-73
2022/03/06 05:34:36;;;;;;;52.20;30.40;;;1.90;99.90;;;;;;4989774;28;20050;-73
2022/03/06 05:37:02;;;;;;;52.47;32.05;;;1.90;99.90;;;;;;4974665;28;20027;-73
2022/03/06 05:39:28;;;;;;;52.33;31.60;;;1.80;99.90;;;;;;4974328;28;20034;-70
2022/03/06 05:41:54;;;;;;;49.92;30.15;;;1.80;99.90;;;;;;4974601;28;20565;-73
2022/03/06 05:44:21;;;;;;;48.80;30.88;;;1.80;99.90;;;;;;4974385;28;20031;-74
2022/03/06 05:46:47;;;;;;;53.33;32.72;;;1.80;99.90;;;;;;4989738;28;20043;-74
2022/03/06 05:49:13;;;;;;;55.63;32.38;;;1.80;99.90;;;;;;4973446;28;20046;-72
2022/03/06 05:51:40;;;;;;;52.30;33.50;;;1.80;99.90;;;;;;4974208;28;20430;-73
2022/03/06 05:54:07;;;;;;;47.90;30.92;;;1.80;99.90;;;;;;4974485;28;20093;-75
2022/03/06 05:56:33;;;;;;;52.95;32.28;;;1.80;99.90;;;;;;4974436;28;20397;-74
2022/03/06 05:59:00;;;;;;;52.25;32.95;;;1.80;99.90;;;;;;4974429;28;20113;-73
2022/03/06 06:01:29;;;;;;;48.80;31.70;;;1.80;99.90;;;;;;4974143;28;20124;-73
2022/03/06 06:03:56;;;;;;;50.47;32.65;;;1.80;99.90;;;;;;4974287;28;20031;-74
2022/03/06 06:06:24;;;;;;;68.38;40.45;;;1.90;99.90;;;;;;4974109;28;20031;-73
2022/03/06 06:08:50;;;;;;;54.90;34.80;;;1.90;99.90;;;;;;4974388;28;20023;-72
2022/03/06 06:11:16;;;;;;;54.40;32.88;;;1.90;99.90;;;;;;4974123;28;20098;-71
2022/03/06 06:13:42;;;;;;;52.25;33.28;;;1.90;99.90;;;;;;4974108;28;20042;-73
2022/03/06 06:16:08;;;;;;;49.45;33.35;;;1.90;99.90;;;;;;4974422;28;20030;-74
2022/03/06 06:18:34;;;;;;;51.95;34.15;;;1.90;99.90;;;;;;4974058;28;20524;-73
2022/03/06 06:21:00;;;;;;;50.55;33.15;;;1.80;99.90;;;;;;4973652;28;20058;-73
2022/03/06 06:23:26;;;;;;;49.88;31.98;;;1.80;99.90;;;;;;4974081;28;20049;-72
2022/03/06 06:25:52;;;;;;;50.60;32.80;;;1.70;99.90;;;;;;4974246;28;20535;-74
2022/03/06 06:28:18;;;;;;;51.92;33.70;;;1.70;99.90;;;;;;4973871;28;20493;-74
2022/03/06 06:30:44;;;;;;;55.63;34.83;;;1.60;99.90;;;;;;4972866;28;20108;-74
2022/03/06 06:33:11;;;;;;;61.92;39.58;;;1.60;99.90;;;;;;4973818;28;20469;-73
2022/03/06 06:35:37;;;;;;;99.95;54.40;;;1.60;99.90;;;;;;4973634;28;20026;-73
2022/03/06 06:38:04;;;;;;;62.42;37.28;;;1.60;99.90;;;;;;4974043;28;20031;-72
2022/03/06 06:40:30;;;;;;;126.72;65.18;;;1.50;99.90;;;;;;4972541;28;20033;-72
2022/03/06 06:42:57;;;;;;;66.60;40.03;;;1.60;99.90;;;;;;4973344;28;20125;-73
2022/03/06 06:45:22;;;;;;;53.58;36.13;;;1.50;99.90;;;;;;4973576;28;20086;-73
2022/03/06 06:47:49;;;;;;;63.55;41.75;;;1.50;99.90;;;;;;4973727;28;20434;-74
2022/03/06 06:50:15;;;;;;;61.05;39.03;;;1.40;99.90;;;;;;4973003;28;20106;-73
2022/03/06 06:52:41;;;;;;;62.08;36.28;;;1.40;99.90;;;;;;4973178;28;20122;-73
2022/03/06 06:55:07;;;;;;;51.05;33.38;;;1.40;99.90;;;;;;4973464;28;20214;-74
2022/03/06 06:57:33;;;;;;;49.47;31.10;;;1.40;99.90;;;;;;4973071;28;20035;-73
2022/03/06 07:00:01;;;;;;;52.47;31.98;;;1.40;99.90;;;;;;4973755;28;20033;-72
2022/03/06 07:02:27;;;;;;;51.80;33.75;;;1.40;99.90;;;;;;4973281;28;20023;-72
2022/03/06 07:04:53;;;;;;;46.85;32.25;;;1.30;99.90;;;;;;4973518;28;20489;-72
2022/03/06 07:07:19;;;;;;;46.67;30.83;;;1.30;99.90;;;;;;4984468;28;20070;-73
2022/03/06 07:09:44;;;;;;;47.55;29.33;;;1.20;99.90;;;;;;4973352;28;20491;-72
2022/03/06 07:12:11;;;;;;;48.33;31.52;;;1.20;99.90;;;;;;4972963;28;20038;-73
2022/03/06 07:14:37;;;;;;;47.45;28.80;;;1.30;99.90;;;;;;4973287;28;20027;-72
2022/03/06 07:17:03;;;;;;;46.95;30.88;;;1.20;99.90;;;;;;4969639;28;20093;-71
2022/03/06 07:19:29;;;;;;;52.20;31.88;;;1.20;99.90;;;;;;4966488;28;20023;-73
2022/03/06 07:21:55;;;;;;;48.53;30.63;;;1.20;99.90;;;;;;4971070;28;20104;-72
2022/03/06 07:24:22;;;;;;;52.28;33.50;;;1.20;99.90;;;;;;4970897;28;20026;-72
2022/03/06 07:26:48;;;;;;;56.83;38.22;;;1.20;99.90;;;;;;4970754;28;20037;-72
2022/03/06 07:29:14;;;;;;;57.28;38.55;;;1.20;99.90;;;;;;4971058;28;20416;-72
2022/03/06 07:31:40;;;;;;;64.47;40.45;;;1.20;99.90;;;;;;4972181;28;20019;-72
2022/03/06 07:34:05;;;;;;;61.50;39.80;;;1.20;99.90;;;;;;4972180;28;20589;-71
2022/03/06 07:36:31;;;;;;;58.03;37.60;;;1.20;99.90;;;;;;4972440;28;20039;-73
2022/03/06 07:38:57;;;;;;;60.08;38.33;;;1.30;99.90;;;;;;4970932;28;20062;-72
2022/03/06 07:41:23;;;;;;;50.65;32.95;;;1.30;99.90;;;;;;4971977;28;20040;-72
2022/03/06 07:43:49;;;;;;;51.35;32.40;;;1.40;99.90;;;;;;4971471;28;20493;-71
2022/03/06 07:46:15;;;;;;;58.83;38.03;;;1.40;99.90;;;;;;4972348;28;20445;-72
2022/03/06 07:48:41;;;;;;;52.30;34.33;;;1.40;99.90;;;;;;4972303;28;20031;-72
2022/03/06 07:51:07;;;;;;;55.08;34.80;;;1.50;99.90;;;;;;4973108;28;20355;-72
2022/03/06 07:53:33;;;;;;;48.95;31.88;;;1.40;99.90;;;;;;4972662;28;20031;-72
2022/03/06 07:55:58;;;;;;;52.15;33.13;;;1.50;99.90;;;;;;4973062;28;20532;-72
2022/03/06 07:58:24;;;;;;;49.92;32.13;;;1.50;99.90;;;;;;4972738;28;20039;-72
2022/03/06 08:00:50;;;;;;;54.45;35.30;;;1.60;99.90;;;;;;4973554;28;20033;-71
2022/03/06 08:03:16;;;;;;;43.97;29.35;;;1.60;99.90;;;;;;4976758;28;20097;-73
2022/03/06 08:05:43;;;;;;;55.65;36.40;;;1.50;99.90;;;;;;4976200;28;20446;-72
2022/03/06 08:08:09;;;;;;;45.22;30.42;;;1.50;99.90;;;;;;4976216;28;20023;-71
2022/03/06 08:10:34;;;;;;;50.95;34.50;;;1.50;99.90;;;;;;4975550;28;20372;-71
2022/03/06 08:13:00;;;;;;;44.60;28.48;;;1.50;99.90;;;;;;4975177;28;20030;-71
2022/03/06 08:15:26;;;;;;;36.53;23.40;;;1.50;99.90;;;;;;4975582;28;20369;-71
2022/03/06 08:17:52;;;;;;;46.40;28.58;;;1.50;99.90;;;;;;4976162;28;20489;-71
2022/03/06 08:20:18;;;;;;;38.28;24.20;;;1.60;99.90;;;;;;4975097;28;20065;-71
2022/03/06 08:22:44;;;;;;;41.78;26.42;;;1.60;99.90;;;;;;4973840;28;20031;-71
2022/03/06 08:25:10;;;;;;;39.47;25.27;;;1.70;99.90;;;;;;4975917;28;20027;-72
2022/03/06 08:27:36;;;;;;;40.85;28.50;;;1.70;99.90;;;;;;4975859;28;20026;-71
2022/03/06 08:30:04;;;;;;;42.20;27.25;;;1.70;99.90;;;;;;4975803;28;20034;-72
2022/03/06 08:32:30;;;;;;;54.03;35.97;;;1.70;99.90;;;;;;4975139;28;20034;-70
2022/03/06 08:34:57;;;;;;;57.85;35.05;;;1.60;99.90;;;;;;4975607;28;20504;-72
2022/03/06 08:37:22;;;;;;;55.42;34.90;;;1.60;99.90;;;;;;4975764;28;20027;-73
2022/03/06 08:39:49;;;;;;;49.88;33.03;;;1.70;99.90;;;;;;4976193;28;20035;-70
2022/03/06 08:42:15;;;;;;;51.25;33.33;;;1.60;99.90;;;;;;4975990;28;20043;-71
2022/03/06 08:44:42;;;;;;;49.13;32.03;;;1.60;99.90;;;;;;4975323;28;20046;-71
2022/03/06 08:47:09;;;;;;;49.42;33.72;;;1.60;99.90;;;;;;4975528;28;20033;-72
2022/03/06 08:49:35;;;;;;;48.30;30.48;;;1.60;99.90;;;;;;4974835;28;20031;-71
2022/03/06 08:52:01;;;;;;;45.58;30.02;;;1.70;99.90;;;;;;4975157;28;20023;-71
2022/03/06 08:54:27;;;;;;;44.53;27.15;;;1.70;99.90;;;;;;4975232;28;20515;-71
2022/03/06 08:56:53;;;;;;;40.13;25.88;;;1.80;99.90;;;;;;4975342;28;20023;-71
2022/03/06 08:59:20;;;;;;;44.33;28.95;;;1.70;99.90;;;;;;4975362;28;20022;-72
2022/03/06 09:01:46;;;;;;;41.38;27.20;;;1.70;99.90;;;;;;4975264;28;20041;-71
2022/03/06 09:04:13;;;;;;;38.35;24.95;;;1.70;99.90;;;;;;4975220;28;20037;-72
2022/03/06 09:06:40;;;;;;;39.20;24.15;;;1.80;99.90;;;;;;4973791;28;20037;-72
2022/03/06 09:09:06;;;;;;;35.13;21.10;;;1.80;99.90;;;;;;4975000;28;20018;-71
2022/03/06 09:11:32;;;;;;;37.88;23.63;;;1.80;99.90;;;;;;4975525;28;20031;-72
2022/03/06 09:13:59;;;;;;;30.25;20.20;;;1.90;99.90;;;;;;4973658;28;20046;-71
2022/03/06 09:16:25;;;;;;;38.13;23.13;;;1.80;99.90;;;;;;4974255;28;20493;-69
2022/03/06 09:18:51;;;;;;;39.50;24.63;;;1.90;99.90;;;;;;4973657;28;20110;-71
2022/03/06 09:21:17;;;;;;;35.17;23.65;;;1.90;99.90;;;;;;4975116;28;20106;-71
2022/03/06 09:23:43;;;;;;;36.00;23.30;;;1.90;99.90;;;;;;4975589;28;20384;-72
2022/03/06 09:26:09;;;;;;;40.20;25.42;;;2.00;99.90;;;;;;4975383;28;20018;-71
2022/03/06 09:28:35;;;;;;;28.58;18.85;;;2.00;99.90;;;;;;4973668;28;20125;-71
2022/03/06 09:31:01;;;;;;;39.47;20.25;;;2.00;99.90;;;;;;4974108;28;20106;-72
2022/03/06 09:33:27;;;;;;;35.42;21.58;;;2.00;99.90;;;;;;4974842;28;20130;-73
2022/03/06 09:35:53;;;;;;;43.03;23.20;;;2.00;99.90;;;;;;4974436;28;20061;-72
2022/03/06 09:38:19;;;;;;;36.38;24.27;;;2.00;99.90;;;;;;4975064;28;20397;-72
2022/03/06 09:40:45;;;;;;;28.45;18.27;;;1.90;99.90;;;;;;4974905;28;20022;-71
2022/03/06 09:43:16;;;;;;;37.70;22.58;;;1.90;99.90;;;;;;4975373;28;20489;-71
2022/03/06 09:45:43;;;;;;;31.27;20.48;;;2.00;99.90;;;;;;4974716;28;20054;-72
2022/03/06 09:48:11;;;;;;;30.88;19.88;;;1.90;99.90;;;;;;4974848;28;20031;-71
2022/03/06 09:50:37;;;;;;;32.58;18.85;;;1.90;99.90;;;;;;4972298;28;20019;-72
2022/03/06 09:53:03;;;;;;;28.85;17.90;;;2.00;99.90;;;;;;4974515;28;20113;-72
2022/03/06 09:55:30;;;;;;;35.95;21.67;;;1.90;99.90;;;;;;4974946;28;20035;-73
2022/03/06 09:57:57;;;;;;;35.15;21.33;;;2.00;99.90;;;;;;4974616;28;20023;-72
2022/03/06 10:00:24;;;;;;;38.25;22.05;;;2.00;99.90;;;;;;4974726;28;20027;-73
2022/03/06 10:02:57;;;;;;;35.53;23.55;;;1.90;99.90;;;;;;4974981;28;20025;-73
2022/03/06 10:05:38;;;;;;;32.85;20.83;;;1.90;99.90;;;;;;4972678;28;20771;-76
2022/03/06 10:08:26;;;;;;;39.60;25.65;;;1.90;99.90;;;;;;4972679;28;20500;-74
2022/03/06 10:10:58;;;;;;;30.10;19.13;;;1.90;99.90;;;;;;4974038;28;20026;-75
2022/03/06 10:13:31;;;;;;;34.07;23.33;;;1.80;99.90;;;;;;4974554;28;20108;-75
2022/03/06 10:16:10;;;;;;;32.85;22.13;;;1.80;99.90;;;;;;4974371;28;20054;-74
2022/03/06 10:18:46;;;;;;;30.10;20.90;;;1.80;99.90;;;;;;4974483;28;20088;-74
2022/03/06 10:21:18;;;;;;;35.08;20.38;;;1.90;99.90;;;;;;4972953;28;20493;-75
2022/03/06 10:23:56;;;;;;;34.28;22.65;;;1.80;99.90;;;;;;4969277;28;20031;-74
2022/03/06 10:26:25;;;;;;;29.10;18.70;;;1.80;99.90;;;;;;4973636;28;20080;-74
2022/03/06 10:28:53;;;;;;;28.20;18.48;;;1.90;99.90;;;;;;4973435;28;21189;-73
2022/03/06 10:31:21;;;;;;;29.10;19.38;;;1.90;99.90;;;;;;4974358;28;20019;-74
2022/03/06 10:34:02;;;;;;;26.92;16.38;;;2.00;99.90;;;;;;4973366;28;20117;-75
2022/03/06 10:36:45;;;;;;;35.30;22.73;;;2.00;99.90;;;;;;4972968;28;20062;-74
2022/03/06 10:39:13;;;;;;;39.78;24.85;;;2.00;99.90;;;;;;4974232;28;20081;-74
2022/03/06 10:41:47;;;;;;;31.80;20.85;;;2.00;99.90;;;;;;4973628;28;20030;-74
2022/03/06 10:44:13;;;;;;;37.20;23.20;;;2.00;99.90;;;;;;4974037;28;20086;-74
2022/03/06 10:46:40;;;;;;;33.38;20.95;;;2.00;99.90;;;;;;4973574;28;20121;-73
2022/03/06 10:49:15;;;;;;;33.50;20.00;;;2.00;99.90;;;;;;4973900;28;20444;-73
2022/03/06 10:51:44;;;;;;;40.03;26.15;;;1.90;99.90;;;;;;4973573;28;20078;-74
2022/03/06 10:54:13;;;;;;;32.33;21.33;;;2.00;99.90;;;;;;4973586;28;20085;-72
2022/03/06 10:56:39;;;;;;;33.95;20.92;;;1.90;99.90;;;;;;4973605;28;20413;-73
2022/03/06 10:59:06;;;;;;;36.65;22.20;;;1.80;99.90;;;;;;4973631;28;20027;-73
2022/03/06 11:01:33;;;;;;;34.90;21.92;;;1.70;99.90;;;;;;4973446;28;20026;-73
2022/03/06 11:04:02;;;;;;;33.13;20.05;;;1.80;99.90;;;;;;4972805;28;20427;-73
2022/03/06 11:06:32;;;;;;;32.30;20.00;;;1.70;99.90;;;;;;4973765;28;20113;-73
2022/03/06 11:08:59;;;;;;;34.30;21.25;;;1.70;99.90;;;;;;4973423;28;20029;-74
2022/03/06 11:11:26;;;;;;;34.55;22.70;;;1.80;99.90;;;;;;4973595;28;20567;-73
2022/03/06 11:13:55;;;;;;;31.77;20.88;;;1.80;99.90;;;;;;4973246;28;20047;-73
2022/03/06 11:16:22;;;;;;;35.83;21.10;;;1.70;99.90;;;;;;4973119;28;20106;-73
2022/03/06 11:18:49;;;;;;;31.98;19.13;;;1.70;99.90;;;;;;4973279;28;20034;-73
2022/03/06 11:21:15;;;;;;;36.78;24.23;;;1.60;99.90;;;;;;4973393;28;20031;-73
2022/03/06 11:23:50;;;;;;;31.35;22.42;;;1.70;99.90;;;;;;4973397;28;20023;-74
2022/03/06 11:26:15;;;;;;;31.50;20.88;;;1.70;99.90;;;;;;4973256;28;20478;-73
2022/03/06 11:29:08;;;;;;;30.27;19.67;;;1.70;99.90;;;;;;4973119;28;20078;-73
2022/03/06 11:31:49;;;;;;;34.90;20.40;;;1.60;99.90;;;;;;4973273;28;20027;-73
2022/03/06 11:34:27;;;;;;;33.45;20.58;;;1.60;99.90;;;;;;4973080;28;20162;-73
2022/03/06 11:36:55;;;;;;;29.33;17.77;;;1.70;99.90;;;;;;4972277;28;20374;-73
2022/03/06 11:39:30;;;;;;;30.65;20.48;;;1.70;99.90;;;;;;4973261;28;20033;-73
2022/03/06 11:42:01;;;;;;;33.53;21.05;;;1.60;99.90;;;;;;4973285;28;20029;-74
2022/03/06 11:44:34;;;;;;;34.17;22.30;;;1.70;99.90;;;;;;4972863;28;20049;-73
2022/03/06 11:47:10;;;;;;;30.92;19.45;;;1.70;99.90;;;;;;4972645;28;20109;-74
2022/03/06 11:49:36;;;;;;;32.78;19.65;;;1.70;99.90;;;;;;4972709;28;20034;-74
2022/03/06 11:52:25;;;;;;;38.35;25.08;;;1.70;99.90;;;;;;4972658;28;20019;-74
2022/03/06 11:54:51;;;;;;;35.13;22.40;;;1.70;99.90;;;;;;4972881;28;20111;-73
2022/03/06 11:57:36;;;;;;;36.58;23.83;;;1.70;99.90;;;;;;4972649;28;20448;-73
2022/03/06 12:00:17;;;;;;;30.55;19.55;;;1.70;99.90;;;;;;4972463;28;20034;-73
2022/03/06 12:02:52;;;;;;;37.03;22.88;;;1.70;99.90;;;;;;4971181;28;20385;-73
2022/03/06 12:05:20;;;;;;;32.35;20.85;;;1.70;99.90;;;;;;4972794;28;20030;-73
2022/03/06 12:07:48;;;;;;;32.20;20.63;;;1.70;99.90;;;;;;4972696;28;20023;-73
2022/03/06 12:10:15;;;;;;;27.98;19.00;;;1.70;99.90;;;;;;4972516;28;20081;-72
2022/03/06 12:12:41;;;;;;;26.80;16.20;;;1.70;99.90;;;;;;4972714;28;20031;-72
2022/03/06 12:15:23;;;;;;;27.23;18.45;;;1.70;99.90;;;;;;4971449;28;20042;-74
2022/03/06 12:17:49;;;;;;;30.67;19.33;;;1.70;99.90;;;;;;4967878;28;20582;-73
2022/03/06 12:20:24;;;;;;;29.70;18.50;;;1.70;99.90;;;;;;4970580;28;20027;-73
2022/03/06 12:22:53;;;;;;;34.88;22.05;;;1.60;99.90;;;;;;4970755;28;20035;-73
2022/03/06 12:25:25;;;;;;;30.95;20.15;;;1.60;99.90;;;;;;4971308;28;20019;-73
2022/03/06 12:28:03;;;;;;;29.92;19.10;;;1.60;99.90;;;;;;4972115;28;20508;-78
2022/03/06 12:30:31;;;;;;;34.55;21.65;;;1.60;99.90;;;;;;4971625;28;20030;-75
2022/03/06 12:33:17;;;;;;;39.30;23.30;;;1.60;99.90;;;;;;4971991;28;20031;-75
2022/03/06 12:35:44;;;;;;;32.83;19.77;;;1.60;99.90;;;;;;4971255;28;20035;-74
2022/03/06 12:38:10;;;;;;;39.65;24.05;;;1.60;99.90;;;;;;4972530;28;20027;-75
2022/03/06 12:40:36;;;;;;;32.22;19.45;;;1.70;99.90;;;;;;4972591;28;20493;-75
2022/03/06 12:43:06;;;;;;;36.38;23.52;;;1.70;99.90;;;;;;4972091;28;20030;-75
2022/03/06 12:45:36;;;;;;;27.65;17.92;;;1.70;99.90;;;;;;4971498;28;20058;-75
2022/03/06 12:48:02;;;;;;;37.58;23.98;;;1.60;99.90;;;;;;4973147;28;20094;-74
2022/03/06 12:50:28;;;;;;;29.88;20.75;;;1.70;99.90;;;;;;4975184;28;20021;-76
2022/03/06 12:52:56;;;;;;;34.67;22.67;;;1.60;99.90;;;;;;4975344;28;20039;-74
2022/03/06 12:55:24;;;;;;;30.30;19.05;;;1.60;99.90;;;;;;4975999;28;20485;-75